sensor_id;sensor_type;location;lat;lon;timestamp;P1;durP1;ratioP1;P2;durP2;ratioP2
35634;SDS011;21757;43.610;1.440;2023-06-14T00:00:09;6.18;;;3.80;;
35634;SDS011;21757;43.610;1.440;2023-06-14T00:02:37;4.78;;;3.95;;
35634;SDS011;21757;43.610;1.440;2023-06-14T00:05:06;4.63;;;3.47;;
35634;SDS011;21757;43.610;1.440;2023-06-14T00:07:36;4.57;;;3.10;;
35634;SDS011;21757;43.610;1.440;2023-06-14T00:10:07;4.32;;;3.50;;
35634;SDS011;21757;43.610;1.440;2023-06-14T00:12:33;4.18;;;3.78;;
35634;SDS011;21757;43.610;1.440;2023-06-14T00:14:59;4.65;;;4.00;;
35634;SDS011;21757;43.610;1.440;2023-06-14T00:17:26;4.15;;;3.70;;
35634;SDS011;21757;43.610;1.440;2023-06-14T00:19:55;4.97;;;3.85;;
35634;SDS011;21757;43.610;1.440;2023-06-14T00:22:22;5.68;;;4.13;;
35634;SDS011;21757;43.610;1.440;2023-06-14T00:24:49;4.20;;;3.80;;
35634;SDS011;21757;43.610;1.440;2023-06-14T00:27:16;6.72;;;4.43;;
35634;SDS011;21757;43.610;1.440;2023-06-14T00:29:41;4.50;;;4.07;;
35634;SDS011;21757;43.610;1.440;2023-06-14T00:32:07;4.18;;;3.78;;
35634;SDS011;21757;43.610;1.440;2023-06-14T00:34:33;4.22;;;3.83;;
35634;SDS011;21757;43.610;1.440;2023-06-14T00:36:59;4.72;;;3.88;;
35634;SDS011;21757;43.610;1.440;2023-06-14T00:39:26;4.28;;;3.88;;
35634;SDS011;21757;43.610;1.440;2023-06-14T00:41:51;5.10;;;3.78;;
35634;SDS011;21757;43.610;1.440;2023-06-14T00:44:17;4.50;;;4.10;;
35634;SDS011;21757;43.610;1.440;2023-06-14T00:46:45;4.82;;;4.32;;
35634;SDS011;21757;43.610;1.440;2023-06-14T00:49:10;5.57;;;4.13;;
35634;SDS011;21757;43.610;1.440;2023-06-14T00:51:40;6.05;;;4.57;;
35634;SDS011;21757;43.610;1.440;2023-06-14T00:54:08;4.65;;;4.07;;
35634;SDS011;21757;43.610;1.440;2023-06-14T00:56:37;5.05;;;4.05;;
35634;SDS011;21757;43.610;1.440;2023-06-14T00:59:04;5.10;;;4.60;;
35634;SDS011;21757;43.610;1.440;2023-06-14T01:01:31;5.57;;;4.50;;
35634;SDS011;21757;43.610;1.440;2023-06-14T01:03:58;4.90;;;4.43;;
35634;SDS011;21757;43.610;1.440;2023-06-14T01:06:31;6.18;;;4.75;;
35634;SDS011;21757;43.610;1.440;2023-06-14T01:09:03;6.50;;;4.80;;
35634;SDS011;21757;43.610;1.440;2023-06-14T01:11:50;6.57;;;5.47;;
35634;SDS011;21757;43.610;1.440;2023-06-14T01:14:29;7.00;;;5.43;;
35634;SDS011;21757;43.610;1.440;2023-06-14T01:16:58;8.10;;;6.32;;
35634;SDS011;21757;43.610;1.440;2023-06-14T01:19:25;7.47;;;6.60;;
35634;SDS011;21757;43.610;1.440;2023-06-14T01:21:53;8.73;;;6.70;;
35634;SDS011;21757;43.610;1.440;2023-06-14T01:24:20;8.95;;;7.78;;
35634;SDS011;21757;43.610;1.440;2023-06-14T01:26:50;9.70;;;7.95;;
35634;SDS011;21757;43.610;1.440;2023-06-14T01:29:21;11.45;;;7.82;;
35634;SDS011;21757;43.610;1.440;2023-06-14T01:31:50;9.75;;;7.32;;
35634;SDS011;21757;43.610;1.440;2023-06-14T01:34:16;9.40;;;7.03;;
35634;SDS011;21757;43.610;1.440;2023-06-14T01:36:43;8.40;;;7.53;;
35634;SDS011;21757;43.610;1.440;2023-06-14T01:39:11;10.18;;;8.70;;
35634;SDS011;21757;43.610;1.440;2023-06-14T01:41:40;13.98;;;10.27;;
35634;SDS011;21757;43.610;1.440;2023-06-14T01:44:07;9.68;;;7.63;;
35634;SDS011;21757;43.610;1.440;2023-06-14T01:46:35;8.98;;;8.07;;
35634;SDS011;21757;43.610;1.440;2023-06-14T01:49:02;10.00;;;8.38;;
35634;SDS011;21757;43.610;1.440;2023-06-14T01:51:27;10.65;;;8.18;;
35634;SDS011;21757;43.610;1.440;2023-06-14T01:53:53;12.27;;;8.30;;
35634;SDS011;21757;43.610;1.440;2023-06-14T01:56:20;10.02;;;7.93;;
35634;SDS011;21757;43.610;1.440;2023-06-14T01:58:46;11.77;;;8.05;;
35634;SDS011;21757;43.610;1.440;2023-06-14T02:01:13;13.10;;;8.85;;
35634;SDS011;21757;43.610;1.440;2023-06-14T02:03:41;15.30;;;8.30;;
35634;SDS011;21757;43.610;1.440;2023-06-14T02:06:07;12.38;;;7.90;;
35634;SDS011;21757;43.610;1.440;2023-06-14T02:08:33;10.48;;;8.23;;
35634;SDS011;21757;43.610;1.440;2023-06-14T02:10:58;10.02;;;7.90;;
35634;SDS011;21757;43.610;1.440;2023-06-14T02:13:24;8.40;;;7.60;;
35634;SDS011;21757;43.610;1.440;2023-06-14T02:15:50;9.40;;;8.30;;
35634;SDS011;21757;43.610;1.440;2023-06-14T02:18:19;9.32;;;7.72;;
35634;SDS011;21757;43.610;1.440;2023-06-14T02:20:46;9.48;;;7.20;;
35634;SDS011;21757;43.610;1.440;2023-06-14T02:23:12;10.48;;;7.47;;
35634;SDS011;21757;43.610;1.440;2023-06-14T02:25:38;10.38;;;8.38;;
35634;SDS011;21757;43.610;1.440;2023-06-14T02:28:05;9.95;;;7.55;;
35634;SDS011;21757;43.610;1.440;2023-06-14T02:30:31;8.43;;;7.63;;
35634;SDS011;21757;43.610;1.440;2023-06-14T02:32:57;8.52;;;7.65;;
35634;SDS011;21757;43.610;1.440;2023-06-14T02:35:23;8.43;;;6.95;;
35634;SDS011;21757;43.610;1.440;2023-06-14T02:37:51;9.40;;;7.30;;
35634;SDS011;21757;43.610;1.440;2023-06-14T02:40:17;8.57;;;7.20;;
35634;SDS011;21757;43.610;1.440;2023-06-14T02:42:43;8.95;;;7.22;;
35634;SDS011;21757;43.610;1.440;2023-06-14T02:45:09;8.85;;;7.05;;
35634;SDS011;21757;43.610;1.440;2023-06-14T02:47:35;6.63;;;5.78;;
35634;SDS011;21757;43.610;1.440;2023-06-14T02:50:01;8.75;;;7.32;;
35634;SDS011;21757;43.610;1.440;2023-06-14T02:52:27;8.70;;;6.60;;
35634;SDS011;21757;43.610;1.440;2023-06-14T02:54:53;11.32;;;7.20;;
35634;SDS011;21757;43.610;1.440;2023-06-14T02:57:19;9.02;;;6.38;;
35634;SDS011;21757;43.610;1.440;2023-06-14T02:59:45;8.65;;;6.60;;
35634;SDS011;21757;43.610;1.440;2023-06-14T03:02:11;8.70;;;6.18;;
35634;SDS011;21757;43.610;1.440;2023-06-14T03:04:37;7.70;;;5.53;;
35634;SDS011;21757;43.610;1.440;2023-06-14T03:07:03;8.45;;;6.60;;
35634;SDS011;21757;43.610;1.440;2023-06-14T03:09:37;9.20;;;6.70;;
35634;SDS011;21757;43.610;1.440;2023-06-14T03:12:03;7.80;;;6.22;;
35634;SDS011;21757;43.610;1.440;2023-06-14T03:14:31;9.38;;;6.60;;
35634;SDS011;21757;43.610;1.440;2023-06-14T03:16:57;9.27;;;6.35;;
35634;SDS011;21757;43.610;1.440;2023-06-14T03:19:23;8.63;;;6.20;;
35634;SDS011;21757;43.610;1.440;2023-06-14T03:21:50;7.25;;;6.10;;
35634;SDS011;21757;43.610;1.440;2023-06-14T03:24:16;9.32;;;6.57;;
35634;SDS011;21757;43.610;1.440;2023-06-14T03:26:42;9.27;;;6.32;;
35634;SDS011;21757;43.610;1.440;2023-06-14T03:29:08;7.93;;;6.80;;
35634;SDS011;21757;43.610;1.440;2023-06-14T03:31:34;10.50;;;6.85;;
35634;SDS011;21757;43.610;1.440;2023-06-14T03:34:00;10.32;;;6.75;;
35634;SDS011;21757;43.610;1.440;2023-06-14T03:36:26;8.95;;;6.20;;
35634;SDS011;21757;43.610;1.440;2023-06-14T03:38:53;11.55;;;6.88;;
35634;SDS011;21757;43.610;1.440;2023-06-14T03:41:20;10.63;;;7.03;;
35634;SDS011;21757;43.610;1.440;2023-06-14T03:43:45;9.13;;;6.85;;
35634;SDS011;21757;43.610;1.440;2023-06-14T03:46:11;8.07;;;6.45;;
35634;SDS011;21757;43.610;1.440;2023-06-14T03:48:37;8.52;;;6.85;;
35634;SDS011;21757;43.610;1.440;2023-06-14T03:51:03;10.93;;;7.38;;
35634;SDS011;21757;43.610;1.440;2023-06-14T03:53:29;8.13;;;6.82;;
35634;SDS011;21757;43.610;1.440;2023-06-14T03:55:55;8.80;;;7.07;;
35634;SDS011;21757;43.610;1.440;2023-06-14T03:58:22;12.60;;;7.70;;
35634;SDS011;21757;43.610;1.440;2023-06-14T04:00:47;9.00;;;7.35;;
35634;SDS011;21757;43.610;1.440;2023-06-14T04:03:13;10.35;;;7.93;;
35634;SDS011;21757;43.610;1.440;2023-06-14T04:05:40;9.48;;;7.47;;
35634;SDS011;21757;43.610;1.440;2023-06-14T04:08:09;9.27;;;8.02;;
35634;SDS011;21757;43.610;1.440;2023-06-14T04:10:35;9.23;;;8.18;;
35634;SDS011;21757;43.610;1.440;2023-06-14T04:13:01;11.93;;;8.57;;
35634;SDS011;21757;43.610;1.440;2023-06-14T04:15:27;11.77;;;8.68;;
35634;SDS011;21757;43.610;1.440;2023-06-14T04:17:55;14.43;;;8.27;;
35634;SDS011;21757;43.610;1.440;2023-06-14T04:20:22;12.35;;;8.98;;
35634;SDS011;21757;43.610;1.440;2023-06-14T04:22:50;13.40;;;8.80;;
35634;SDS011;21757;43.610;1.440;2023-06-14T04:25:16;11.80;;;10.32;;
35634;SDS011;21757;43.610;1.440;2023-06-14T04:27:42;12.32;;;9.75;;
35634;SDS011;21757;43.610;1.440;2023-06-14T04:30:09;14.25;;;10.07;;
35634;SDS011;21757;43.610;1.440;2023-06-14T04:32:35;14.48;;;9.95;;
35634;SDS011;21757;43.610;1.440;2023-06-14T04:35:04;13.73;;;10.15;;
35634;SDS011;21757;43.610;1.440;2023-06-14T04:37:31;13.65;;;11.10;;
35634;SDS011;21757;43.610;1.440;2023-06-14T04:39:58;13.63;;;11.55;;
35634;SDS011;21757;43.610;1.440;2023-06-14T04:42:24;20.08;;;12.18;;
35634;SDS011;21757;43.610;1.440;2023-06-14T04:44:55;14.07;;;11.93;;
35634;SDS011;21757;43.610;1.440;2023-06-14T04:47:20;22.13;;;12.35;;
35634;SDS011;21757;43.610;1.440;2023-06-14T04:49:46;20.35;;;13.48;;
35634;SDS011;21757;43.610;1.440;2023-06-14T04:52:12;15.90;;;12.77;;
35634;SDS011;21757;43.610;1.440;2023-06-14T04:54:38;16.75;;;12.68;;
35634;SDS011;21757;43.610;1.440;2023-06-14T04:57:07;16.92;;;13.82;;
35634;SDS011;21757;43.610;1.440;2023-06-14T04:59:39;17.52;;;13.57;;
35634;SDS011;21757;43.610;1.440;2023-06-14T05:02:05;18.83;;;13.98;;
35634;SDS011;21757;43.610;1.440;2023-06-14T05:04:32;16.92;;;14.27;;
35634;SDS011;21757;43.610;1.440;2023-06-14T05:06:58;21.13;;;14.23;;
35634;SDS011;21757;43.610;1.440;2023-06-14T05:09:23;19.63;;;14.38;;
35634;SDS011;21757;43.610;1.440;2023-06-14T05:11:49;16.15;;;13.68;;
35634;SDS011;21757;43.610;1.440;2023-06-14T05:14:15;24.50;;;14.98;;
35634;SDS011;21757;43.610;1.440;2023-06-14T05:16:41;21.48;;;14.70;;
35634;SDS011;21757;43.610;1.440;2023-06-14T05:19:07;21.83;;;15.68;;
35634;SDS011;21757;43.610;1.440;2023-06-14T05:21:33;20.40;;;16.02;;
35634;SDS011;21757;43.610;1.440;2023-06-14T05:24:00;24.33;;;16.27;;
35634;SDS011;21757;43.610;1.440;2023-06-14T05:26:26;20.67;;;15.63;;
35634;SDS011;21757;43.610;1.440;2023-06-14T05:28:55;19.38;;;15.45;;
35634;SDS011;21757;43.610;1.440;2023-06-14T05:31:22;20.55;;;15.55;;
35634;SDS011;21757;43.610;1.440;2023-06-14T05:33:48;23.85;;;16.15;;
35634;SDS011;21757;43.610;1.440;2023-06-14T05:36:15;20.95;;;15.95;;
35634;SDS011;21757;43.610;1.440;2023-06-14T05:38:40;26.05;;;15.77;;
35634;SDS011;21757;43.610;1.440;2023-06-14T05:41:06;22.02;;;17.45;;
35634;SDS011;21757;43.610;1.440;2023-06-14T05:43:32;25.40;;;16.80;;
35634;SDS011;21757;43.610;1.440;2023-06-14T05:45:57;24.08;;;16.48;;
35634;SDS011;21757;43.610;1.440;2023-06-14T05:48:23;23.67;;;16.92;;
35634;SDS011;21757;43.610;1.440;2023-06-14T05:50:49;20.88;;;16.58;;
35634;SDS011;21757;43.610;1.440;2023-06-14T05:53:15;22.80;;;15.90;;
35634;SDS011;21757;43.610;1.440;2023-06-14T05:55:42;20.23;;;15.57;;
35634;SDS011;21757;43.610;1.440;2023-06-14T05:58:07;23.48;;;17.77;;
35634;SDS011;21757;43.610;1.440;2023-06-14T06:00:33;18.40;;;15.63;;
35634;SDS011;21757;43.610;1.440;2023-06-14T06:02:59;23.27;;;16.80;;
35634;SDS011;21757;43.610;1.440;2023-06-14T06:05:25;20.27;;;16.92;;
35634;SDS011;21757;43.610;1.440;2023-06-14T06:07:51;23.45;;;16.23;;
35634;SDS011;21757;43.610;1.440;2023-06-14T06:10:17;18.83;;;15.90;;
35634;SDS011;21757;43.610;1.440;2023-06-14T06:12:43;22.50;;;15.48;;
35634;SDS011;21757;43.610;1.440;2023-06-14T06:15:08;29.77;;;22.83;;
35634;SDS011;21757;43.610;1.440;2023-06-14T06:17:37;23.75;;;16.90;;
35634;SDS011;21757;43.610;1.440;2023-06-14T06:20:04;24.27;;;17.27;;
35634;SDS011;21757;43.610;1.440;2023-06-14T06:22:33;29.80;;;20.48;;
35634;SDS011;21757;43.610;1.440;2023-06-14T06:24:59;21.25;;;16.60;;
35634;SDS011;21757;43.610;1.440;2023-06-14T06:27:25;25.73;;;17.63;;
35634;SDS011;21757;43.610;1.440;2023-06-14T06:29:51;20.60;;;16.42;;
35634;SDS011;21757;43.610;1.440;2023-06-14T06:32:17;20.70;;;16.27;;
35634;SDS011;21757;43.610;1.440;2023-06-14T06:34:42;22.05;;;15.82;;
35634;SDS011;21757;43.610;1.440;2023-06-14T06:37:08;24.67;;;17.55;;
35634;SDS011;21757;43.610;1.440;2023-06-14T06:39:34;46.88;;;29.40;;
35634;SDS011;21757;43.610;1.440;2023-06-14T06:42:00;37.28;;;22.58;;
35634;SDS011;21757;43.610;1.440;2023-06-14T06:44:25;22.17;;;16.58;;
35634;SDS011;21757;43.610;1.440;2023-06-14T06:46:51;26.63;;;18.65;;
35634;SDS011;21757;43.610;1.440;2023-06-14T06:49:17;21.52;;;16.50;;
35634;SDS011;21757;43.610;1.440;2023-06-14T06:51:43;21.60;;;15.93;;
35634;SDS011;21757;43.610;1.440;2023-06-14T06:54:09;22.17;;;16.08;;
35634;SDS011;21757;43.610;1.440;2023-06-14T06:56:35;21.42;;;15.65;;
35634;SDS011;21757;43.610;1.440;2023-06-14T06:59:01;21.88;;;15.68;;
35634;SDS011;21757;43.610;1.440;2023-06-14T07:01:27;22.85;;;16.77;;
35634;SDS011;21757;43.610;1.440;2023-06-14T07:03:54;20.75;;;14.77;;
35634;SDS011;21757;43.610;1.440;2023-06-14T07:06:20;22.27;;;15.90;;
35634;SDS011;21757;43.610;1.440;2023-06-14T07:08:46;21.67;;;15.10;;
35634;SDS011;21757;43.610;1.440;2023-06-14T07:11:15;22.27;;;15.93;;
35634;SDS011;21757;43.610;1.440;2023-06-14T07:13:41;21.73;;;14.93;;
35634;SDS011;21757;43.610;1.440;2023-06-14T07:16:06;27.90;;;16.70;;
35634;SDS011;21757;43.610;1.440;2023-06-14T07:18:32;22.05;;;15.68;;
35634;SDS011;21757;43.610;1.440;2023-06-14T07:20:58;21.00;;;15.07;;
35634;SDS011;21757;43.610;1.440;2023-06-14T07:23:23;22.65;;;15.60;;
35634;SDS011;21757;43.610;1.440;2023-06-14T07:25:50;25.83;;;15.88;;
35634;SDS011;21757;43.610;1.440;2023-06-14T07:28:16;20.58;;;15.65;;
35634;SDS011;21757;43.610;1.440;2023-06-14T07:30:43;22.65;;;16.08;;
35634;SDS011;21757;43.610;1.440;2023-06-14T07:33:08;25.42;;;15.90;;
35634;SDS011;21757;43.610;1.440;2023-06-14T07:35:35;22.35;;;15.45;;
35634;SDS011;21757;43.610;1.440;2023-06-14T07:38:01;16.88;;;14.77;;
35634;SDS011;21757;43.610;1.440;2023-06-14T07:40:26;20.35;;;15.60;;
35634;SDS011;21757;43.610;1.440;2023-06-14T07:42:52;20.60;;;14.65;;
35634;SDS011;21757;43.610;1.440;2023-06-14T07:45:19;20.65;;;14.82;;
35634;SDS011;21757;43.610;1.440;2023-06-14T07:47:45;26.17;;;14.90;;
35634;SDS011;21757;43.610;1.440;2023-06-14T07:50:11;22.08;;;14.38;;
35634;SDS011;21757;43.610;1.440;2023-06-14T07:52:38;26.27;;;15.73;;
35634;SDS011;21757;43.610;1.440;2023-06-14T07:55:04;21.17;;;14.15;;
35634;SDS011;21757;43.610;1.440;2023-06-14T07:57:30;21.45;;;13.32;;
35634;SDS011;21757;43.610;1.440;2023-06-14T07:59:56;17.10;;;14.25;;
35634;SDS011;21757;43.610;1.440;2023-06-14T08:02:22;19.55;;;13.75;;
35634;SDS011;21757;43.610;1.440;2023-06-14T08:04:47;21.02;;;14.07;;
35634;SDS011;21757;43.610;1.440;2023-06-14T08:07:13;19.55;;;13.32;;
35634;SDS011;21757;43.610;1.440;2023-06-14T08:09:39;17.45;;;13.65;;
35634;SDS011;21757;43.610;1.440;2023-06-14T08:12:05;25.45;;;12.95;;
35634;SDS011;21757;43.610;1.440;2023-06-14T08:14:33;21.00;;;12.68;;
35634;SDS011;21757;43.610;1.440;2023-06-14T08:16:59;19.90;;;12.57;;
35634;SDS011;21757;43.610;1.440;2023-06-14T08:19:25;18.58;;;12.45;;
35634;SDS011;21757;43.610;1.440;2023-06-14T08:21:50;22.83;;;12.88;;
35634;SDS011;21757;43.610;1.440;2023-06-14T08:24:16;21.55;;;12.77;;
35634;SDS011;21757;43.610;1.440;2023-06-14T08:26:43;17.70;;;12.57;;
35634;SDS011;21757;43.610;1.440;2023-06-14T08:29:09;23.83;;;14.82;;
35634;SDS011;21757;43.610;1.440;2023-06-14T08:31:35;26.35;;;16.10;;
35634;SDS011;21757;43.610;1.440;2023-06-14T08:34:01;19.63;;;13.10;;
35634;SDS011;21757;43.610;1.440;2023-06-14T08:36:26;19.65;;;13.73;;
35634;SDS011;21757;43.610;1.440;2023-06-14T08:38:52;19.38;;;13.45;;
35634;SDS011;21757;43.610;1.440;2023-06-14T08:41:20;19.27;;;13.13;;
35634;SDS011;21757;43.610;1.440;2023-06-14T08:43:49;21.65;;;13.05;;
35634;SDS011;21757;43.610;1.440;2023-06-14T08:46:17;25.73;;;13.30;;
35634;SDS011;21757;43.610;1.440;2023-06-14T08:48:46;20.85;;;13.65;;
35634;SDS011;21757;43.610;1.440;2023-06-14T08:51:14;28.88;;;18.67;;
35634;SDS011;21757;43.610;1.440;2023-06-14T08:53:44;29.23;;;17.70;;
35634;SDS011;21757;43.610;1.440;2023-06-14T08:56:11;28.05;;;19.65;;
35634;SDS011;21757;43.610;1.440;2023-06-14T08:58:47;23.55;;;14.75;;
35634;SDS011;21757;43.610;1.440;2023-06-14T09:01:14;22.52;;;14.38;;
35634;SDS011;21757;43.610;1.440;2023-06-14T09:03:42;27.75;;;17.10;;
35634;SDS011;21757;43.610;1.440;2023-06-14T09:06:09;23.40;;;13.27;;
35634;SDS011;21757;43.610;1.440;2023-06-14T09:08:45;22.20;;;12.55;;
35634;SDS011;21757;43.610;1.440;2023-06-14T09:11:13;22.83;;;14.48;;
35634;SDS011;21757;43.610;1.440;2023-06-14T09:13:40;19.02;;;12.77;;
35634;SDS011;21757;43.610;1.440;2023-06-14T09:16:06;19.20;;;11.68;;
35634;SDS011;21757;43.610;1.440;2023-06-14T09:18:39;25.20;;;12.35;;
35634;SDS011;21757;43.610;1.440;2023-06-14T09:21:08;24.17;;;12.15;;
35634;SDS011;21757;43.610;1.440;2023-06-14T09:23:39;22.17;;;12.38;;
35634;SDS011;21757;43.610;1.440;2023-06-14T09:26:09;16.83;;;11.75;;
35634;SDS011;21757;43.610;1.440;2023-06-14T09:28:36;17.55;;;12.00;;
35634;SDS011;21757;43.610;1.440;2023-06-14T09:31:06;17.50;;;11.03;;
35634;SDS011;21757;43.610;1.440;2023-06-14T09:33:33;17.35;;;12.00;;
35634;SDS011;21757;43.610;1.440;2023-06-14T09:35:59;17.02;;;11.23;;
35634;SDS011;21757;43.610;1.440;2023-06-14T09:38:25;20.13;;;11.32;;
35634;SDS011;21757;43.610;1.440;2023-06-14T09:40:51;21.30;;;11.75;;
35634;SDS011;21757;43.610;1.440;2023-06-14T09:43:17;21.40;;;12.13;;
35634;SDS011;21757;43.610;1.440;2023-06-14T09:45:44;20.88;;;11.93;;
35634;SDS011;21757;43.610;1.440;2023-06-14T09:48:13;18.40;;;12.02;;
35634;SDS011;21757;43.610;1.440;2023-06-14T09:50:44;18.38;;;11.40;;
35634;SDS011;21757;43.610;1.440;2023-06-14T09:53:11;16.77;;;11.35;;
35634;SDS011;21757;43.610;1.440;2023-06-14T09:55:39;16.77;;;11.00;;
35634;SDS011;21757;43.610;1.440;2023-06-14T09:58:06;16.70;;;11.68;;
35634;SDS011;21757;43.610;1.440;2023-06-14T10:00:35;17.73;;;11.30;;
35634;SDS011;21757;43.610;1.440;2023-06-14T10:03:11;18.85;;;11.93;;
35634;SDS011;21757;43.610;1.440;2023-06-14T10:05:39;17.08;;;10.95;;
35634;SDS011;21757;43.610;1.440;2023-06-14T10:08:10;15.43;;;10.23;;
35634;SDS011;21757;43.610;1.440;2023-06-14T10:10:42;15.73;;;10.75;;
35634;SDS011;21757;43.610;1.440;2023-06-14T10:13:08;14.85;;;10.95;;
35634;SDS011;21757;43.610;1.440;2023-06-14T10:15:43;18.40;;;11.00;;
35634;SDS011;21757;43.610;1.440;2023-06-14T10:18:30;13.02;;;10.50;;
35634;SDS011;21757;43.610;1.440;2023-06-14T10:24:07;14.20;;;10.35;;
35634;SDS011;21757;43.610;1.440;2023-06-14T10:26:39;16.13;;;10.88;;
35634;SDS011;21757;43.610;1.440;2023-06-14T10:29:16;17.55;;;11.25;;
35634;SDS011;21757;43.610;1.440;2023-06-14T10:31:43;16.30;;;10.80;;
35634;SDS011;21757;43.610;1.440;2023-06-14T10:39:28;18.45;;;11.05;;
35634;SDS011;21757;43.610;1.440;2023-06-14T10:41:55;18.15;;;10.98;;
35634;SDS011;21757;43.610;1.440;2023-06-14T10:46:53;17.02;;;10.35;;
35634;SDS011;21757;43.610;1.440;2023-06-14T10:49:19;16.35;;;9.88;;
35634;SDS011;21757;43.610;1.440;2023-06-14T10:51:51;15.60;;;10.88;;
35634;SDS011;21757;43.610;1.440;2023-06-14T10:54:21;15.52;;;10.35;;
35634;SDS011;21757;43.610;1.440;2023-06-14T10:59:14;14.10;;;10.30;;
35634;SDS011;21757;43.610;1.440;2023-06-14T11:02:36;11.48;;;9.63;;
35634;SDS011;21757;43.610;1.440;2023-06-14T11:04:47;19.20;;;10.15;;
35634;SDS011;21757;43.610;1.440;2023-06-14T11:13:06;15.07;;;11.30;;
35634;SDS011;21757;43.610;1.440;2023-06-14T11:15:35;14.70;;;10.57;;
35634;SDS011;21757;43.610;1.440;2023-06-14T11:18:02;13.38;;;10.40;;
35634;SDS011;21757;43.610;1.440;2023-06-14T11:20:33;13.27;;;9.63;;
35634;SDS011;21757;43.610;1.440;2023-06-14T11:23:00;13.20;;;10.05;;
35634;SDS011;21757;43.610;1.440;2023-06-14T11:25:27;17.25;;;10.55;;
35634;SDS011;21757;43.610;1.440;2023-06-14T11:27:53;15.07;;;9.93;;
35634;SDS011;21757;43.610;1.440;2023-06-14T11:30:19;13.98;;;10.50;;
35634;SDS011;21757;43.610;1.440;2023-06-14T11:32:51;12.88;;;9.80;;
35634;SDS011;21757;43.610;1.440;2023-06-14T11:35:18;16.70;;;10.05;;
35634;SDS011;21757;43.610;1.440;2023-06-14T11:37:47;14.57;;;9.98;;
35634;SDS011;21757;43.610;1.440;2023-06-14T11:40:14;12.52;;;9.23;;
35634;SDS011;21757;43.610;1.440;2023-06-14T11:42:40;10.98;;;9.70;;
35634;SDS011;21757;43.610;1.440;2023-06-14T11:45:10;15.88;;;9.65;;
35634;SDS011;21757;43.610;1.440;2023-06-14T11:47:37;15.57;;;9.80;;
35634;SDS011;21757;43.610;1.440;2023-06-14T11:50:05;12.88;;;10.32;;
35634;SDS011;21757;43.610;1.440;2023-06-14T11:52:33;16.05;;;9.45;;
35634;SDS011;21757;43.610;1.440;2023-06-14T11:54:59;16.55;;;8.70;;
35634;SDS011;21757;43.610;1.440;2023-06-14T11:57:29;16.52;;;10.10;;
35634;SDS011;21757;43.610;1.440;2023-06-14T11:59:55;14.68;;;9.20;;
35634;SDS011;21757;43.610;1.440;2023-06-14T12:02:21;13.82;;;9.70;;
35634;SDS011;21757;43.610;1.440;2023-06-14T12:04:47;17.13;;;9.80;;
35634;SDS011;21757;43.610;1.440;2023-06-14T12:07:16;13.00;;;9.05;;
35634;SDS011;21757;43.610;1.440;2023-06-14T12:12:25;13.93;;;9.02;;
35634;SDS011;21757;43.610;1.440;2023-06-14T12:14:51;12.38;;;9.02;;
35634;SDS011;21757;43.610;1.440;2023-06-14T12:17:18;11.38;;;9.30;;
35634;SDS011;21757;43.610;1.440;2023-06-14T12:19:45;13.25;;;9.13;;
35634;SDS011;21757;43.610;1.440;2023-06-14T12:22:11;10.73;;;8.70;;
35634;SDS011;21757;43.610;1.440;2023-06-14T12:24:38;14.50;;;9.15;;
35634;SDS011;21757;43.610;1.440;2023-06-14T12:27:07;14.35;;;9.57;;
35634;SDS011;21757;43.610;1.440;2023-06-14T12:29:33;12.88;;;8.93;;
35634;SDS011;21757;43.610;1.440;2023-06-14T12:31:59;15.90;;;9.30;;
35634;SDS011;21757;43.610;1.440;2023-06-14T12:34:28;31.85;;;22.40;;
35634;SDS011;21757;43.610;1.440;2023-06-14T12:36:56;19.48;;;12.32;;
35634;SDS011;21757;43.610;1.440;2023-06-14T12:39:22;16.35;;;9.57;;
35634;SDS011;21757;43.610;1.440;2023-06-14T12:41:48;19.80;;;12.27;;
35634;SDS011;21757;43.610;1.440;2023-06-14T12:44:14;16.58;;;11.45;;
35634;SDS011;21757;43.610;1.440;2023-06-14T12:46:41;14.30;;;10.35;;
35634;SDS011;21757;43.610;1.440;2023-06-14T12:49:08;15.27;;;11.18;;
35634;SDS011;21757;43.610;1.440;2023-06-14T12:51:37;12.90;;;9.55;;
35634;SDS011;21757;43.610;1.440;2023-06-14T12:54:04;14.25;;;9.23;;
35634;SDS011;21757;43.610;1.440;2023-06-14T12:56:30;11.38;;;8.43;;
35634;SDS011;21757;43.610;1.440;2023-06-14T12:58:55;26.88;;;21.02;;
35634;SDS011;21757;43.610;1.440;2023-06-14T13:01:21;13.15;;;9.48;;
35634;SDS011;21757;43.610;1.440;2023-06-14T13:03:47;13.90;;;9.75;;
35634;SDS011;21757;43.610;1.440;2023-06-14T13:06:14;11.18;;;9.18;;
35634;SDS011;21757;43.610;1.440;2023-06-14T13:08:40;16.13;;;10.27;;
35634;SDS011;21757;43.610;1.440;2023-06-14T13:11:06;16.00;;;10.07;;
35634;SDS011;21757;43.610;1.440;2023-06-14T13:13:32;12.50;;;9.60;;
35634;SDS011;21757;43.610;1.440;2023-06-14T13:15:58;13.35;;;8.43;;
35634;SDS011;21757;43.610;1.440;2023-06-14T13:18:23;12.35;;;8.35;;
35634;SDS011;21757;43.610;1.440;2023-06-14T13:20:49;13.82;;;8.57;;
35634;SDS011;21757;43.610;1.440;2023-06-14T13:23:15;10.07;;;8.40;;
35634;SDS011;21757;43.610;1.440;2023-06-14T13:25:41;13.55;;;9.68;;
35634;SDS011;21757;43.610;1.440;2023-06-14T13:28:07;18.02;;;9.15;;
35634;SDS011;21757;43.610;1.440;2023-06-14T13:30:33;13.95;;;9.00;;
35634;SDS011;21757;43.610;1.440;2023-06-14T13:32:59;12.35;;;8.15;;
35634;SDS011;21757;43.610;1.440;2023-06-14T13:35:25;9.02;;;8.05;;
35634;SDS011;21757;43.610;1.440;2023-06-14T13:37:51;14.40;;;8.93;;
35634;SDS011;21757;43.610;1.440;2023-06-14T13:40:17;11.85;;;8.45;;
35634;SDS011;21757;43.610;1.440;2023-06-14T13:42:43;15.00;;;9.25;;
35634;SDS011;21757;43.610;1.440;2023-06-14T13:45:10;14.82;;;9.88;;
35634;SDS011;21757;43.610;1.440;2023-06-14T13:47:36;14.35;;;8.82;;
35634;SDS011;21757;43.610;1.440;2023-06-14T13:50:03;11.85;;;8.85;;
35634;SDS011;21757;43.610;1.440;2023-06-14T13:52:29;15.93;;;10.93;;
35634;SDS011;21757;43.610;1.440;2023-06-14T13:54:54;18.10;;;12.40;;
35634;SDS011;21757;43.610;1.440;2023-06-14T13:57:20;68.07;;;57.13;;
35634;SDS011;21757;43.610;1.440;2023-06-14T13:59:46;50.58;;;38.38;;
35634;SDS011;21757;43.610;1.440;2023-06-14T14:02:12;73.20;;;54.55;;
35634;SDS011;21757;43.610;1.440;2023-06-14T14:04:38;99.07;;;77.30;;
35634;SDS011;21757;43.610;1.440;2023-06-14T14:07:04;98.50;;;73.78;;
35634;SDS011;21757;43.610;1.440;2023-06-14T14:09:31;42.63;;;30.48;;
35634;SDS011;21757;43.610;1.440;2023-06-14T14:11:58;19.23;;;15.10;;
35634;SDS011;21757;43.610;1.440;2023-06-14T14:14:24;19.88;;;11.10;;
35634;SDS011;21757;43.610;1.440;2023-06-14T14:16:50;13.32;;;9.43;;
35634;SDS011;21757;43.610;1.440;2023-06-14T14:19:20;35.25;;;24.27;;
35634;SDS011;21757;43.610;1.440;2023-06-14T14:21:47;121.63;;;90.60;;
35634;SDS011;21757;43.610;1.440;2023-06-14T14:24:13;101.20;;;75.32;;
35634;SDS011;21757;43.610;1.440;2023-06-14T14:26:39;15.65;;;11.45;;
35634;SDS011;21757;43.610;1.440;2023-06-14T14:29:05;21.20;;;14.70;;
35634;SDS011;21757;43.610;1.440;2023-06-14T14:31:31;14.32;;;10.10;;
35634;SDS011;21757;43.610;1.440;2023-06-14T14:33:57;19.02;;;12.20;;
35634;SDS011;21757;43.610;1.440;2023-06-14T14:36:23;16.65;;;11.23;;
35634;SDS011;21757;43.610;1.440;2023-06-14T14:38:48;21.52;;;11.65;;
35634;SDS011;21757;43.610;1.440;2023-06-14T14:41:16;20.05;;;12.63;;
35634;SDS011;21757;43.610;1.440;2023-06-14T14:43:42;29.63;;;22.08;;
35634;SDS011;21757;43.610;1.440;2023-06-14T14:46:08;16.90;;;13.20;;
35634;SDS011;21757;43.610;1.440;2023-06-14T14:48:33;16.02;;;10.68;;
35634;SDS011;21757;43.610;1.440;2023-06-14T14:50:59;15.30;;;10.95;;